createdAt,value
2023-01-20T00:01:46.237Z,87.98
2023-01-20T00:04:51.863Z,87.90
2023-01-20T00:07:57.269Z,87.94
2023-01-20T00:11:02.372Z,88.56
2023-01-20T00:14:14.532Z,88.97
2023-01-20T00:17:19.630Z,89.19
2023-01-20T00:20:25.952Z,89.63
2023-01-20T00:23:30.694Z,89.95
2023-01-20T00:26:39.288Z,89.86
2023-01-20T00:29:38.878Z,89.75
2023-01-20T00:32:46.151Z,89.92
2023-01-20T00:35:52.495Z,89.81
2023-01-20T00:38:58.199Z,89.92
2023-01-20T00:42:03.063Z,89.62
2023-01-20T00:45:08.676Z,89.22
2023-01-20T00:48:14.793Z,89.09
2023-01-20T00:51:20.137Z,89.43
2023-01-20T00:54:25.469Z,89.36
2023-01-20T00:57:31.639Z,88.71
2023-01-20T01:00:37.180Z,88.69
2023-01-20T01:03:42.863Z,88.62
2023-01-20T01:06:49.168Z,87.87
2023-01-20T01:09:54.361Z,87.69
2023-01-20T01:13:00.744Z,88.15
2023-01-20T01:16:05.356Z,88.20
2023-01-20T01:19:10.738Z,87.81
2023-01-20T01:22:15.815Z,87.14
2023-01-20T01:25:22.028Z,87.21
2023-01-20T01:28:21.329Z,87.28
2023-01-20T01:31:28.309Z,87.16
2023-01-20T01:34:33.586Z,86.45
2023-01-20T01:37:39.472Z,86.19
2023-01-20T01:40:48.902Z,86.00
2023-01-20T01:43:54.316Z,86.25
2023-01-20T01:47:00.516Z,86.19
2023-01-20T01:50:05.938Z,86.18
2023-01-20T01:53:11.593Z,86.21
2023-01-20T01:56:17.333Z,85.74
2023-01-20T01:59:22.384Z,85.24
2023-01-20T02:02:28.136Z,85.49
2023-01-20T02:05:34.524Z,85.40
2023-01-20T02:08:40.739Z,85.15
2023-01-20T02:11:48.223Z,85.11
2023-01-20T02:14:56.379Z,85.15
2023-01-20T02:18:14.299Z,85.30
2023-01-20T02:21:47.218Z,84.87
2023-01-20T02:25:25.438Z,85.01
2023-01-20T02:29:01.279Z,84.61
2023-01-20T02:32:36.510Z,84.48
2023-01-20T02:36:11.640Z,84.80
2023-01-20T02:39:27.926Z,84.60
2023-01-20T02:42:55.719Z,84.26
2023-01-20T02:46:08.360Z,84.02
2023-01-20T02:49:39.477Z,83.44
2023-01-20T02:52:49.498Z,83.12
2023-01-20T02:55:58.093Z,82.77
2023-01-20T02:59:04.018Z,82.62
2023-01-20T03:02:28.795Z,82.05
2023-01-20T03:05:37.206Z,83.60
2023-01-20T03:08:44.043Z,83.71
2023-01-20T03:11:49.910Z,84.50
2023-01-20T03:14:54.635Z,84.16
2023-01-20T03:18:00.847Z,83.89
2023-01-20T03:21:06.446Z,83.36
2023-01-20T03:24:15.575Z,83.29
2023-01-20T03:27:21.161Z,82.92
2023-01-20T03:30:32.325Z,82.52
2023-01-20T03:33:38.076Z,82.76
2023-01-20T03:36:44.861Z,82.70
2023-01-20T03:39:43.653Z,82.87
2023-01-20T03:43:08.063Z,82.77
2023-01-20T03:46:20.884Z,82.30
2023-01-20T03:49:33.895Z,82.06
2023-01-20T03:52:48.758Z,81.34
2023-01-20T03:56:22.232Z,81.33
2023-01-20T03:59:28.472Z,81.16
2023-01-20T04:02:33.653Z,81.79
2023-01-20T04:05:39.361Z,81.79
2023-01-20T04:08:48.002Z,80.52
2023-01-20T04:11:53.741Z,80.89
2023-01-20T04:14:59.867Z,82.14
2023-01-20T04:17:57.988Z,83.11
2023-01-20T04:21:07.095Z,83.01
2023-01-20T04:24:28.005Z,82.92
2023-01-20T04:27:34.426Z,82.92
2023-01-20T04:30:40.257Z,82.13
2023-01-20T04:33:46.581Z,82.61
2023-01-20T04:36:51.894Z,82.78
2023-01-20T04:39:58.080Z,84.54
2023-01-20T04:43:04.066Z,83.54
2023-01-20T04:46:11.350Z,83.04
2023-01-20T04:49:17.396Z,82.45
2023-01-20T04:52:22.206Z,83.19
2023-01-20T04:55:28.202Z,83.20
2023-01-20T04:58:34.007Z,82.96
2023-01-20T05:01:38.949Z,82.90
2023-01-20T05:04:31.046Z,83.42
2023-01-20T05:07:36.067Z,83.03
2023-01-20T05:10:42.449Z,82.99
2023-01-20T05:13:47.958Z,82.98
2023-01-20T05:16:53.706Z,82.77
2023-01-20T05:19:59.116Z,83.21
2023-01-20T05:23:05.095Z,83.11
2023-01-20T05:26:09.824Z,83.20
2023-01-20T05:29:16.283Z,82.91
2023-01-20T05:32:23.071Z,82.92
2023-01-20T05:35:28.628Z,83.10
2023-01-20T05:38:34.529Z,83.26
2023-01-20T05:41:40.210Z,83.42
2023-01-20T05:44:45.611Z,83.64
2023-01-20T05:47:51.295Z,83.36
2023-01-20T05:50:56.885Z,83.06
2023-01-20T05:54:02.988Z,83.12
2023-01-20T05:57:07.680Z,83.28
2023-01-20T06:00:13.399Z,82.88
2023-01-20T06:03:19.141Z,81.71
2023-01-20T06:06:25.933Z,81.75
2023-01-20T06:09:31.369Z,81.92
2023-01-20T06:12:37.225Z,82.09
2023-01-20T06:15:43.759Z,82.93
2023-01-20T06:18:49.307Z,83.34
2023-01-20T06:21:55.574Z,82.67
2023-01-20T06:25:01.576Z,82.07
2023-01-20T06:28:07.396Z,81.85
2023-01-20T06:31:18.814Z,81.73
2023-01-20T06:34:24.724Z,81.82
2023-01-20T06:37:30.147Z,81.76
2023-01-20T06:40:36.320Z,81.11
2023-01-20T06:43:45.984Z,80.21
2023-01-20T06:46:52.804Z,79.11
2023-01-20T06:49:59.413Z,78.64
2023-01-20T06:53:06.580Z,78.48
2023-01-20T06:56:12.563Z,78.61
2023-01-20T06:59:18.571Z,78.81
2023-01-20T07:02:27.551Z,78.79
2023-01-20T07:05:34.311Z,78.67
2023-01-20T07:08:39.413Z,79.06
2023-01-20T07:11:38.707Z,78.95
2023-01-20T07:14:30.653Z,78.57
2023-01-20T07:17:28.815Z,78.21
2023-01-20T07:20:34.405Z,78.93
2023-01-20T07:23:40.229Z,78.78
2023-01-20T07:26:45.575Z,78.31
2023-01-20T07:29:51.186Z,77.86
2023-01-20T07:32:58.133Z,78.67
2023-01-20T07:36:07.651Z,79.18
2023-01-20T07:39:12.771Z,79.46
2023-01-20T07:42:17.480Z,79.38
2023-01-20T07:45:23.450Z,79.42
2023-01-20T07:48:28.632Z,79.64
2023-01-20T07:51:34.652Z,79.16
2023-01-20T07:54:40.458Z,78.89
2023-01-20T07:57:47.159Z,78.96
2023-01-20T08:00:55.605Z,77.98
2023-01-20T08:04:02.521Z,77.45
2023-01-20T08:07:07.800Z,77.34
2023-01-20T08:10:12.812Z,77.03
2023-01-20T08:13:18.353Z,75.66
2023-01-20T08:16:25.215Z,74.88
2023-01-20T08:19:30.800Z,74.88
2023-01-20T08:22:36.263Z,74.33
2023-01-20T08:25:41.152Z,74.05
2023-01-20T08:28:47.598Z,74.00
2023-01-20T08:31:54.268Z,73.50
2023-01-20T08:35:00.469Z,73.49
2023-01-20T08:38:05.665Z,74.07
2023-01-20T08:41:11.767Z,74.85
2023-01-20T08:44:18.146Z,75.11
2023-01-20T08:47:23.375Z,74.85
2023-01-20T08:50:23.670Z,74.55
2023-01-20T08:53:29.748Z,73.58
2023-01-20T08:56:35.276Z,73.81
2023-01-20T08:59:41.239Z,73.62
2023-01-20T09:02:47.350Z,72.73
2023-01-20T09:05:53.475Z,72.75
2023-01-20T09:09:00.423Z,72.57
2023-01-20T09:12:05.899Z,72.12
2023-01-20T09:15:14.501Z,71.88
2023-01-20T09:18:20.469Z,72.49
2023-01-20T09:21:27.051Z,72.39
2023-01-20T09:24:32.417Z,71.14
2023-01-20T09:27:38.473Z,70.93
2023-01-20T09:30:43.992Z,71.01
2023-01-20T09:33:52.996Z,71.03
2023-01-20T09:36:59.713Z,70.44
2023-01-20T09:40:23.635Z,69.37
2023-01-20T09:44:04.431Z,69.86
2023-01-20T09:47:56.285Z,68.40
2023-01-20T09:51:26.621Z,68.74
2023-01-20T09:54:41.123Z,69.23
2023-01-20T09:57:50.004Z,69.23
2023-01-20T10:00:57.873Z,68.19
2023-01-20T10:04:25.427Z,68.56
2023-01-20T10:07:49.951Z,69.18
2023-01-20T10:11:26.082Z,70.25
2023-01-20T10:15:24.552Z,70.52
2023-01-20T10:18:36.351Z,70.59
2023-01-20T10:21:51.421Z,70.46
2023-01-20T10:25:04.759Z,70.09
2023-01-20T10:28:19.537Z,70.38
2023-01-20T10:31:25.383Z,70.69
2023-01-20T10:34:34.392Z,71.13
2023-01-20T10:37:42.787Z,71.81
2023-01-20T10:41:13.379Z,70.85
2023-01-20T10:44:26.004Z,71.47
2023-01-20T10:47:54.476Z,71.58
2023-01-20T10:51:25.667Z,70.30
2023-01-20T10:54:59.541Z,70.07
2023-01-20T10:58:12.545Z,69.98
2023-01-20T11:01:20.535Z,70.25
2023-01-20T11:04:32.994Z,69.41
2023-01-20T11:07:31.229Z,70.69
2023-01-20T11:10:35.395Z,71.33
2023-01-20T11:13:36.910Z,70.41
2023-01-20T11:16:42.664Z,70.00
2023-01-20T11:20:10.662Z,69.67
2023-01-20T11:23:16.805Z,69.12
2023-01-20T11:26:51.252Z,69.21
2023-01-20T11:30:02.374Z,67.32
2023-01-20T11:33:39.079Z,67.19
2023-01-20T11:36:46.269Z,67.46
2023-01-20T11:39:59.120Z,66.51
2023-01-20T11:42:53.562Z,66.90
2023-01-20T11:45:45.544Z,66.35
2023-01-20T11:48:31.369Z,66.24
2023-01-20T11:51:40.432Z,65.82
2023-01-20T11:54:45.509Z,65.06
2023-01-20T11:57:55.757Z,65.10
2023-01-20T12:01:02.401Z,65.58
2023-01-20T12:04:36.755Z,66.37
2023-01-20T12:08:00.419Z,66.58
2023-01-20T12:11:05.552Z,66.57
2023-01-20T12:14:37.509Z,67.68
2023-01-20T12:18:11.550Z,68.93
2023-01-20T12:21:27.734Z,68.03
2023-01-20T12:24:47.190Z,68.40
2023-01-20T12:28:04.348Z,69.56
2023-01-20T12:31:16.776Z,70.54
2023-01-20T12:34:30.252Z,71.12
2023-01-20T12:37:47.893Z,69.42
2023-01-20T12:41:01.062Z,70.25
2023-01-20T12:44:27.232Z,70.18
2023-01-20T12:47:58.816Z,71.02
2023-01-20T12:51:22.602Z,70.46
2023-01-20T12:55:01.722Z,69.65
2023-01-20T12:58:19.078Z,70.65
2023-01-20T13:02:06.676Z,71.39
2023-01-20T13:05:18.801Z,71.33
2023-01-20T13:09:14.003Z,72.05
2023-01-20T13:12:59.399Z,72.02
2023-01-20T13:16:17.512Z,72.87
2023-01-20T13:19:48.958Z,74.36
2023-01-20T13:22:55.346Z,74.52
2023-01-20T13:26:00.994Z,74.58
2023-01-20T13:29:09.642Z,74.89
2023-01-20T13:32:15.866Z,74.87
2023-01-20T13:35:40.924Z,74.83
2023-01-20T13:38:46.574Z,74.97
2023-01-20T13:42:06.000Z,75.25
2023-01-20T13:45:35.922Z,75.21
2023-01-20T13:48:41.980Z,75.10
2023-01-20T13:51:57.166Z,75.48
2023-01-20T13:55:03.371Z,76.29
2023-01-20T13:58:09.069Z,76.57
2023-01-20T14:01:19.585Z,76.41
2023-01-20T14:04:33.870Z,76.20
2023-01-20T14:07:43.124Z,76.29
2023-01-20T14:10:50.103Z,76.33
2023-01-20T14:13:56.936Z,76.04
2023-01-20T14:17:03.561Z,76.01
2023-01-20T14:20:09.334Z,76.02
2023-01-20T14:23:41.060Z,76.08
2023-01-20T14:26:47.155Z,75.93
2023-01-20T14:29:53.832Z,75.90
2023-01-20T14:32:58.643Z,75.67
2023-01-20T14:36:04.375Z,75.43
2023-01-20T14:39:13.872Z,75.93
2023-01-20T14:42:17.811Z,75.49
2023-01-20T14:45:33.937Z,74.57
2023-01-20T14:48:39.613Z,74.36
2023-01-20T14:51:46.081Z,74.63
2023-01-20T14:55:02.349Z,74.71
2023-01-20T14:58:08.729Z,75.37
2023-01-20T15:01:12.720Z,75.47
2023-01-20T15:04:19.737Z,75.84
2023-01-20T15:07:32.072Z,76.51
2023-01-20T15:10:37.467Z,76.86
2023-01-20T15:13:42.422Z,76.95
2023-01-20T15:16:58.263Z,77.04
2023-01-20T15:20:03.625Z,76.71
2023-01-20T15:23:09.376Z,77.67
2023-01-20T15:26:32.573Z,77.59
2023-01-20T15:29:44.386Z,78.20
2023-01-20T15:32:48.993Z,78.91
2023-01-20T15:35:53.759Z,78.70
2023-01-20T15:38:59.241Z,79.08
2023-01-20T15:42:06.022Z,79.18
2023-01-20T15:45:11.801Z,79.75
2023-01-20T15:48:17.467Z,80.69
2023-01-20T15:51:25.308Z,81.39
2023-01-20T15:54:30.827Z,82.07
2023-01-20T15:57:35.395Z,82.32
2023-01-20T16:00:44.932Z,82.57
2023-01-20T16:03:51.801Z,82.53
2023-01-20T16:06:56.943Z,82.76
2023-01-20T16:10:03.509Z,82.62
2023-01-20T16:13:09.796Z,82.93
2023-01-20T16:16:16.496Z,82.95
2023-01-20T16:19:25.717Z,82.93
2023-01-20T16:22:31.312Z,83.05
2023-01-20T16:25:36.984Z,82.82
2023-01-20T16:28:43.291Z,82.99
2023-01-20T16:31:48.968Z,83.04
2023-01-20T16:34:54.594Z,83.38
2023-01-20T16:38:03.973Z,83.38
2023-01-20T16:41:20.726Z,83.44
2023-01-20T16:44:25.908Z,82.67
2023-01-20T16:47:30.923Z,82.85
2023-01-20T16:50:36.423Z,83.39
2023-01-20T16:53:42.544Z,83.73
2023-01-20T16:56:48.680Z,83.78
2023-01-20T16:59:46.535Z,83.19
2023-01-20T17:02:52.104Z,83.56
2023-01-20T17:05:58.480Z,83.51
2023-01-20T17:09:05.851Z,83.88
2023-01-20T17:12:11.627Z,83.80
2023-01-20T17:15:16.793Z,84.01
2023-01-20T17:18:24.059Z,84.13
2023-01-20T17:21:30.110Z,84.12
2023-01-20T17:24:35.164Z,84.04
2023-01-20T17:27:39.854Z,84.00
2023-01-20T17:30:45.816Z,84.21
2023-01-20T17:33:50.452Z,84.58
2023-01-20T17:36:56.484Z,84.96
2023-01-20T17:40:01.708Z,85.44
2023-01-20T17:43:11.319Z,85.52
2023-01-20T17:46:29.690Z,85.74
2023-01-20T17:49:35.158Z,85.99
2023-01-20T17:52:40.062Z,86.13
2023-01-20T17:55:45.023Z,86.20
2023-01-20T17:58:51.413Z,86.30
2023-01-20T18:02:01.713Z,86.52
2023-01-20T18:05:06.944Z,86.26
2023-01-20T18:08:13.948Z,86.06
2023-01-20T18:11:25.692Z,85.96
2023-01-20T18:14:33.020Z,85.93
2023-01-20T18:17:40.842Z,85.79
2023-01-20T18:20:46.357Z,85.60
2023-01-20T18:23:52.634Z,85.65
2023-01-20T18:26:58.082Z,85.65
2023-01-20T18:30:05.992Z,85.58
2023-01-20T18:33:11.492Z,85.61
2023-01-20T18:36:23.521Z,85.60
2023-01-20T18:39:32.060Z,85.45
2023-01-20T18:42:37.391Z,85.61
2023-01-20T18:45:43.511Z,85.72
2023-01-20T18:48:55.510Z,85.81
2023-01-20T18:52:02.372Z,85.70
2023-01-20T18:55:07.536Z,85.84
2023-01-20T18:58:15.811Z,85.62
2023-01-20T19:01:26.738Z,85.42
2023-01-20T19:04:32.228Z,85.36
2023-01-20T19:07:37.183Z,85.42
2023-01-20T19:10:42.770Z,85.42
2023-01-20T19:13:47.531Z,85.15
2023-01-20T19:16:55.030Z,85.29
2023-01-20T19:20:01.615Z,85.42
2023-01-20T19:23:08.161Z,85.23
2023-01-20T19:26:16.487Z,84.98
2023-01-20T19:29:28.343Z,84.58
2023-01-20T19:32:33.510Z,84.41
2023-01-20T19:35:42.065Z,84.30
2023-01-20T19:38:49.108Z,84.18
2023-01-20T19:41:54.660Z,83.94
2023-01-20T19:44:59.570Z,83.80
2023-01-20T19:48:05.396Z,83.76
2023-01-20T19:51:11.386Z,83.62
2023-01-20T19:54:16.891Z,82.78
2023-01-20T19:57:21.609Z,82.52
2023-01-20T20:00:29.054Z,82.63
2023-01-20T20:03:35.293Z,82.36
2023-01-20T20:06:55.830Z,82.20
2023-01-20T20:10:03.007Z,82.12
2023-01-20T20:13:09.131Z,82.15
2023-01-20T20:16:18.679Z,83.34
2023-01-20T20:19:26.913Z,83.43
2023-01-20T20:22:33.204Z,83.43
2023-01-20T20:25:39.721Z,83.34
2023-01-20T20:28:45.160Z,83.31
2023-01-20T20:31:50.819Z,83.20
2023-01-20T20:34:57.010Z,82.93
2023-01-20T20:38:03.446Z,83.13
2023-01-20T20:41:14.524Z,82.68
2023-01-20T20:44:19.296Z,82.63
2023-01-20T20:47:27.202Z,82.55
2023-01-20T20:50:33.993Z,82.46
2023-01-20T20:53:39.413Z,82.47
2023-01-20T20:56:44.609Z,82.10
2023-01-20T20:59:59.187Z,81.27
2023-01-20T21:02:56.704Z,81.03
2023-01-20T21:06:02.697Z,81.09
2023-01-20T21:09:09.737Z,81.27
2023-01-20T21:12:15.344Z,81.04
2023-01-20T21:15:21.305Z,81.27
2023-01-20T21:18:27.838Z,81.24
2023-01-20T21:21:32.634Z,80.76
2023-01-20T21:24:39.184Z,80.66
2023-01-20T21:27:44.997Z,80.51
2023-01-20T21:30:50.530Z,80.40
2023-01-20T21:33:57.960Z,80.36
2023-01-20T21:37:02.835Z,80.44
2023-01-20T21:40:08.507Z,80.87
2023-01-20T21:43:32.494Z,80.58
2023-01-20T21:46:39.487Z,80.29
2023-01-20T21:50:05.132Z,80.25
2023-01-20T21:53:10.967Z,79.78
2023-01-20T21:56:16.915Z,80.42
2023-01-20T21:59:22.919Z,80.55
2023-01-20T22:02:28.964Z,80.25
2023-01-20T22:05:35.292Z,80.00
2023-01-20T22:08:42.175Z,79.30
2023-01-20T22:11:48.573Z,79.11
2023-01-20T22:14:54.546Z,79.57
2023-01-20T22:17:54.142Z,80.11
2023-01-20T22:20:47.168Z,80.40
2023-01-20T22:23:52.733Z,80.55
2023-01-20T22:27:03.935Z,80.31
2023-01-20T22:30:09.659Z,80.53
2023-01-20T22:33:16.409Z,80.12
2023-01-20T22:36:22.784Z,80.37
2023-01-20T22:39:28.669Z,80.78
2023-01-20T22:42:34.511Z,81.02
2023-01-20T22:45:39.858Z,81.05
2023-01-20T22:48:46.780Z,80.93
2023-01-20T22:51:52.708Z,81.05
2023-01-20T22:54:58.822Z,81.21
2023-01-20T22:58:04.621Z,81.40
2023-01-20T23:01:10.649Z,81.78
2023-01-20T23:04:19.295Z,81.86
2023-01-20T23:07:17.517Z,82.38
2023-01-20T23:10:25.783Z,82.71
2023-01-20T23:13:31.324Z,82.56
2023-01-20T23:16:37.541Z,81.65
2023-01-20T23:19:36.471Z,81.77
2023-01-20T23:22:42.532Z,81.84
2023-01-20T23:25:47.782Z,82.52
2023-01-20T23:28:53.515Z,82.69
2023-01-20T23:31:59.938Z,82.63
2023-01-20T23:35:05.642Z,82.85
2023-01-20T23:38:11.518Z,83.03
2023-01-20T23:41:16.393Z,83.26
2023-01-20T23:44:21.993Z,82.95
2023-01-20T23:47:27.828Z,82.05
2023-01-20T23:50:33.922Z,82.22
2023-01-20T23:53:39.113Z,82.77
2023-01-20T23:56:45.125Z,82.71
2023-01-20T23:59:52.161Z,82.40
